Time;durP1;ratioP1;P1;durP2;ratioP2;P2;SDS_P1;SDS_P2;PMS_P1;PMS_P2;Temp;Humidity;BMP_temperature;BMP_pressure;BME280_temperature;BME280_humidity;BME280_pressure;Samples;Min_cycle;Max_cycle;Signal;HPM_P1;HPM_P2
2022/06/06 00:02:02;;;;;;;3.30;1.70;;;;;;;;;;4978144;28;20033;-66
2022/06/06 00:04:28;;;;;;;9.20;2.03;;;;;;;;;;4982282;28;20022;-66
2022/06/06 00:06:58;;;;;;;2.55;1.30;;;;;;;;;;4978088;28;20546;-65
2022/06/06 00:09:27;;;;;;;5.40;1.83;;;;;;;;;;4986486;28;20026;-66
2022/06/06 00:11:56;;;;;;;9.43;1.50;;;;;;;;;;4981038;28;20042;-66
2022/06/06 00:14:22;;;;;;;3.13;1.50;;;;;;;;;;4984054;28;20382;-66
2022/06/06 00:16:48;;;;;;;2.42;1.63;;;;;;;;;;4984965;28;20038;-66
2022/06/06 00:19:13;;;;;;;1.95;1.38;;;;;;;;;;4982983;28;20026;-66
2022/06/06 00:21:41;;;;;;;1.58;1.38;;;;;;;;;;4983655;28;20026;-66
2022/06/06 00:24:08;;;;;;;2.55;2.00;;;;;;;;;;4980506;28;20030;-66
2022/06/06 00:26:34;;;;;;;7.85;1.90;;;;;;;;;;4980223;28;20065;-66
2022/06/06 00:29:02;;;;;;;6.35;1.60;;;;;;;;;;4984816;28;20519;-66
2022/06/06 00:36:58;;;;;;;7.57;1.77;;;;;;;;;;4983325;28;20442;-66
2022/06/06 00:39:24;;;;;;;3.90;1.50;;;;;;;;;;4987319;28;20030;-66
2022/06/06 00:41:52;;;;;;;1.73;1.30;;;;;;;;;;4983302;28;20602;-66
2022/06/06 00:44:31;;;;;;;2.03;1.40;;;;;;;;;;4985594;28;20542;-66
2022/06/06 00:47:16;;;;;;;3.05;1.85;;;;;;;;;;4986441;28;20034;-66
2022/06/06 00:49:49;;;;;;;4.00;1.55;;;;;;;;;;4984573;28;20041;-65
2022/06/06 00:52:27;;;;;;;1.55;1.45;;;;;;;;;;4983074;28;20431;-65
2022/06/06 00:54:59;;;;;;;1.48;1.20;;;;;;;;;;4985261;28;20029;-65
2022/06/06 00:57:28;;;;;;;;;;;;;;;;;;4985716;28;20034;-66
2022/06/06 00:59:54;;;;;;;2.47;1.63;;;;;;;;;;4981079;28;19968;-66
2022/06/06 01:02:20;;;;;;;1.50;1.40;;;;;;;;;;4985405;28;20034;-66
2022/06/06 01:04:47;;;;;;;2.22;1.55;;;;;;;;;;4984546;28;20069;-66
2022/06/06 01:07:14;;;;;;;1.73;1.60;;;;;;;;;;4985552;28;20038;-66
2022/06/06 01:09:42;;;;;;;1.95;1.58;;;;;;;;;;4984119;28;20522;-65
2022/06/06 01:12:12;;;;;;;2.58;1.63;;;;;;;;;;4984834;28;20041;-65
2022/06/06 01:14:46;;;;;;;2.63;1.50;;;;;;;;;;4981260;28;20036;-66
2022/06/06 01:17:42;;;;;;;6.00;1.60;;;;;;;;;;4985539;28;20042;-65
2022/06/06 01:20:25;;;;;;;1.67;1.40;;;;;;;;;;4983641;28;20049;-65
2022/06/06 01:23:19;;;;;;;2.00;1.40;;;;;;;;;;4981782;28;20023;-66
2022/06/06 01:26:02;;;;;;;4.93;1.73;;;;;;;;;;4980743;28;20449;-66
2022/06/06 01:28:51;;;;;;;2.65;1.60;;;;;;;;;;4984277;28;20126;-66
2022/06/06 01:31:48;;;;;;;1.73;1.38;;;;;;;;;;4980722;28;20037;-66
2022/06/06 01:34:23;;;;;;;3.75;1.33;;;;;;;;;;4978983;28;20031;-66
2022/06/06 01:36:51;;;;;;;5.07;1.50;;;;;;;;;;4981600;28;20034;-66
2022/06/06 01:39:19;;;;;;;3.00;1.70;;;;;;;;;;4983526;28;20031;-65
2022/06/06 01:42:15;;;;;;;3.45;1.55;;;;;;;;;;4983213;28;20498;-66
2022/06/06 01:44:55;;;;;;;1.92;1.40;;;;;;;;;;4983714;28;20120;-66
2022/06/06 01:47:26;;;;;;;1.60;1.50;;;;;;;;;;4986015;28;20100;-65
2022/06/06 01:49:55;;;;;;;;;;;;;;;;;;4981710;28;20435;-66
2022/06/06 01:52:21;;;;;;;5.97;1.92;;;;;;;;;;4981460;28;19964;-66
2022/06/06 01:54:47;;;;;;;3.05;1.52;;;;;;;;;;4981209;28;20030;-66
2022/06/06 01:57:16;;;;;;;1.90;1.42;;;;;;;;;;4984597;28;20085;-66
2022/06/06 01:59:41;;;;;;;2.45;1.52;;;;;;;;;;4975878;28;20045;-65
2022/06/06 02:02:08;;;;;;;2.97;1.58;;;;;;;;;;4985323;28;20034;-65
2022/06/06 02:04:35;;;;;;;2.10;1.90;;;;;;;;;;4983280;28;20101;-65
2022/06/06 02:07:00;;;;;;;2.55;1.70;;;;;;;;;;4983359;28;20579;-66
2022/06/06 02:09:31;;;;;;;2.65;1.85;;;;;;;;;;4980742;28;20495;-66
2022/06/06 02:11:58;;;;;;;11.35;2.08;;;;;;;;;;4982260;28;20531;-66
2022/06/06 02:14:24;;;;;;;4.72;2.00;;;;;;;;;;4981721;28;20085;-65
2022/06/06 02:16:50;;;;;;;2.92;1.73;;;;;;;;;;4983330;28;20038;-66
2022/06/06 02:19:16;;;;;;;5.68;2.20;;;;;;;;;;4978892;28;20039;-66
2022/06/06 02:21:42;;;;;;;1.88;1.67;;;;;;;;;;4979459;28;20383;-66
2022/06/06 02:24:07;;;;;;;2.45;2.15;;;;;;;;;;4984290;28;20129;-66
2022/06/06 02:26:34;;;;;;;7.03;1.70;;;;;;;;;;4981544;28;20765;-66
2022/06/06 02:29:00;;;;;;;2.30;1.73;;;;;;;;;;4981768;28;20030;-66
2022/06/06 02:31:27;;;;;;;2.22;2.03;;;;;;;;;;4986647;28;20379;-66
2022/06/06 02:33:53;;;;;;;6.32;2.40;;;;;;;;;;4988493;28;20038;-66
2022/06/06 02:36:19;;;;;;;2.20;1.75;;;;;;;;;;4986759;28;20034;-66
2022/06/06 02:38:45;;;;;;;3.17;2.03;;;;;;;;;;4986084;28;20565;-66
2022/06/06 02:41:11;;;;;;;2.30;1.95;;;;;;;;;;4985130;28;20033;-66
2022/06/06 02:43:43;;;;;;;3.15;2.28;;;;;;;;;;4984337;28;20053;-66
2022/06/06 02:46:10;;;;;;;2.97;1.92;;;;;;;;;;4986859;28;20113;-66
2022/06/06 02:48:36;;;;;;;3.35;2.00;;;;;;;;;;4984831;28;20042;-66
2022/06/06 02:51:03;;;;;;;3.95;1.98;;;;;;;;;;4986391;28;20022;-65
2022/06/06 02:53:30;;;;;;;6.85;2.00;;;;;;;;;;4988072;28;20056;-66
2022/06/06 02:55:57;;;;;;;3.92;1.67;;;;;;;;;;4981917;28;20487;-66
2022/06/06 02:58:24;;;;;;;4.57;1.80;;;;;;;;;;4985342;28;20068;-66
2022/06/06 03:00:58;;;;;;;9.27;2.30;;;;;;;;;;4982221;28;20452;-66
2022/06/06 03:03:23;;;;;;;5.68;3.10;;;;;;;;;;4986875;28;20140;-66
2022/06/06 03:06:04;;;;;;;7.82;2.50;;;;;;;;;;4984179;28;20030;-66
2022/06/06 03:08:51;;;;;;;3.03;2.35;;;;;;;;;;4984193;28;20088;-65
2022/06/06 03:11:47;;;;;;;4.63;2.25;;;;;;;;;;4982508;28;20045;-66
2022/06/06 03:14:24;;;;;;;4.28;2.03;;;;;;;;;;4946785;28;20059;-66
2022/06/06 03:23:05;;;;;;;2.92;2.45;;;;;;;;;;4943627;29;20031;-66
2022/06/06 03:25:59;;;;;;;2.75;2.53;;;;;;;;;;4941534;29;20131;-66
2022/06/06 03:28:56;;;;;;;5.20;2.50;;;;;;;;;;4922395;29;20140;-66
2022/06/06 03:31:52;;;;;;;3.08;2.20;;;;;;;;;;4929111;29;20051;-66
2022/06/06 03:34:30;;;;;;;2.70;2.08;;;;;;;;;;4927963;29;20411;-65
2022/06/06 03:37:18;;;;;;;3.33;2.17;;;;;;;;;;4925752;29;20119;-65
2022/06/06 03:40:08;;;;;;;6.75;2.45;;;;;;;;;;4927510;29;20039;-66
2022/06/06 03:42:36;;;;;;;4.50;2.30;;;;;;;;;;4924909;29;20083;-65
2022/06/06 03:45:10;;;;;;;4.13;2.63;;;;;;;;;;4925012;29;20195;-65
2022/06/06 03:48:02;;;;;;;5.00;2.42;;;;;;;;;;4928600;29;20114;-65
2022/06/06 03:50:36;;;;;;;4.53;2.20;;;;;;;;;;4930993;28;20122;-66
2022/06/06 03:53:12;;;;;;;3.63;2.15;;;;;;;;;;4949198;28;20035;-66
2022/06/06 03:56:07;;;;;;;2.30;2.10;;;;;;;;;;4949745;28;20035;-66
2022/06/06 03:58:33;;;;;;;3.13;2.25;;;;;;;;;;4890683;29;20041;-66
2022/06/06 04:01:03;;;;;;;4.15;2.50;;;;;;;;;;4887664;29;21269;-66
2022/06/06 04:03:29;;;;;;;2.22;2.08;;;;;;;;;;4889458;29;20032;-67
2022/06/06 04:05:57;;;;;;;2.92;1.88;;;;;;;;;;4888844;29;20104;-66
2022/06/06 04:08:22;;;;;;;3.38;2.08;;;;;;;;;;4890035;29;20032;-67
2022/06/06 04:11:22;;;;;;;3.25;2.40;;;;;;;;;;4888931;29;20051;-66
2022/06/06 04:14:07;;;;;;;6.10;2.10;;;;;;;;;;4889189;29;20131;-67
2022/06/06 04:16:35;;;;;;;4.75;1.95;;;;;;;;;;4888518;29;20493;-66
2022/06/06 04:19:32;;;;;;;5.28;2.22;;;;;;;;;;4875611;29;20032;-66
2022/06/06 04:22:29;;;;;;;5.05;2.20;;;;;;;;;;4890481;29;20050;-66
2022/06/06 04:25:27;;;;;;;5.45;2.20;;;;;;;;;;4889028;29;20029;-65
2022/06/06 04:28:27;;;;;;;4.32;2.05;;;;;;;;;;4880829;29;20209;-68
2022/06/06 04:31:11;;;;;;;2.47;2.25;;;;;;;;;;4886561;29;20139;-66
2022/06/06 04:33:43;;;;;;;4.32;2.30;;;;;;;;;;4882607;29;20069;-66
2022/06/06 04:36:18;;;;;;;3.70;2.67;;;;;;;;;;4914703;29;20044;-67
2022/06/06 04:39:05;;;;;;;5.53;2.08;;;;;;;;;;4924155;29;20031;-67
2022/06/06 04:41:50;;;;;;;4.95;2.35;;;;;;;;;;4926370;29;20141;-67
2022/06/06 04:44:34;;;;;;;7.20;2.53;;;;;;;;;;4923384;29;20122;-66
2022/06/06 04:47:18;;;;;;;6.63;2.78;;;;;;;;;;4925777;29;20118;-67
2022/06/06 04:49:46;;;;;;;5.78;2.45;;;;;;;;;;4925466;29;20453;-66
2022/06/06 04:52:13;;;;;;;9.30;3.25;;;;;;;;;;4922401;29;20089;-67
2022/06/06 04:54:41;;;;;;;4.10;2.95;;;;;;;;;;4929097;29;20380;-66
2022/06/06 04:57:08;;;;;;;4.05;2.70;;;;;;;;;;4927209;29;20036;-66
2022/06/06 04:59:35;;;;;;;6.95;2.60;;;;;;;;;;4925140;29;20031;-66
2022/06/06 05:02:02;;;;;;;2.78;2.30;;;;;;;;;;4925594;29;20102;-66
2022/06/06 05:04:29;;;;;;;4.85;2.67;;;;;;;;;;4930446;28;20030;-66
2022/06/06 05:07:29;;;;;;;5.00;2.55;;;;;;;;;;4966812;28;20396;-66
2022/06/06 05:10:16;;;;;;;3.47;2.72;;;;;;;;;;4964170;28;20038;-67
2022/06/06 05:13:06;;;;;;;2.90;2.40;;;;;;;;;;4965500;28;20042;-67
2022/06/06 05:15:41;;;;;;;2.38;2.08;;;;;;;;;;4966557;28;20069;-67
2022/06/06 05:18:18;;;;;;;2.65;2.45;;;;;;;;;;4966998;28;20065;-67
2022/06/06 05:21:13;;;;;;;6.38;2.50;;;;;;;;;;4964294;28;20041;-66
2022/06/06 05:24:19;;;;;;;3.97;2.65;;;;;;;;;;4966220;28;20035;-66
2022/06/06 05:27:23;;;;;;;4.07;2.30;;;;;;;;;;4969787;28;20057;-66
2022/06/06 05:30:14;;;;;;;4.85;2.35;;;;;;;;;;4987034;28;20120;-66
2022/06/06 05:32:49;;;;;;;6.18;2.58;;;;;;;;;;4985128;28;20098;-66
2022/06/06 05:35:32;;;;;;;6.07;2.80;;;;;;;;;;4983090;28;20041;-66
2022/06/06 05:38:01;;;;;;;5.13;2.40;;;;;;;;;;4983324;28;20031;-66
2022/06/06 05:40:37;;;;;;;2.30;2.10;;;;;;;;;;4982759;28;20420;-66
2022/06/06 05:43:02;;;;;;;2.53;1.98;;;;;;;;;;4982377;28;20475;-66
2022/06/06 05:45:50;;;;;;;2.63;2.40;;;;;;;;;;4981046;28;20114;-66
2022/06/06 05:48:39;;;;;;;5.88;2.30;;;;;;;;;;4990667;28;20041;-65
2022/06/06 05:51:14;;;;;;;6.93;2.20;;;;;;;;;;4979787;28;20982;-65
2022/06/06 05:54:01;;;;;;;4.10;2.53;;;;;;;;;;4980222;28;20046;-66
2022/06/06 05:57:05;;;;;;;7.13;2.72;;;;;;;;;;4981110;28;20081;-65
2022/06/06 05:59:52;;;;;;;4.57;2.08;;;;;;;;;;4981599;28;20035;-65
2022/06/06 06:02:47;;;;;;;10.85;2.22;;;;;;;;;;4980375;28;20046;-65
2022/06/06 06:05:40;;;;;;;3.78;2.55;;;;;;;;;;4982506;28;20030;-65
2022/06/06 06:08:15;;;;;;;4.18;2.13;;;;;;;;;;4986773;28;20352;-66
2022/06/06 06:11:12;;;;;;;2.10;1.90;;;;;;;;;;4984032;28;20113;-66
2022/06/06 06:13:46;;;;;;;3.80;2.15;;;;;;;;;;4983753;28;20051;-67
2022/06/06 06:16:15;;;;;;;3.20;2.00;;;;;;;;;;4988897;28;20142;-66
2022/06/06 06:18:47;;;;;;;3.72;2.22;;;;;;;;;;4986786;28;20035;-65
2022/06/06 06:21:27;;;;;;;3.60;2.42;;;;;;;;;;4988587;28;20030;-67
2022/06/06 06:24:09;;;;;;;8.73;2.50;;;;;;;;;;4986895;28;21560;-67
2022/06/06 06:26:36;;;;;;;6.85;2.55;;;;;;;;;;4986520;28;20058;-66
2022/06/06 06:29:04;;;;;;;8.80;2.88;;;;;;;;;;4986608;28;20047;-66
2022/06/06 06:31:42;;;;;;;5.88;2.22;;;;;;;;;;4982134;28;20034;-66
2022/06/06 06:34:39;;;;;;;3.78;2.10;;;;;;;;;;4985851;28;20510;-66
2022/06/06 06:37:31;;;;;;;2.50;2.25;;;;;;;;;;4984793;28;20806;-66
2022/06/06 06:40:09;;;;;;;7.78;2.55;;;;;;;;;;4985012;28;20114;-66
2022/06/06 06:42:54;;;;;;;5.22;2.30;;;;;;;;;;4987778;28;20035;-66
2022/06/06 06:45:28;;;;;;;8.88;2.30;;;;;;;;;;4988595;28;20399;-66
2022/06/06 06:48:07;;;;;;;5.80;2.72;;;;;;;;;;4985690;28;20034;-65
2022/06/06 06:50:40;;;;;;;6.00;2.25;;;;;;;;;;4981195;28;20141;-66
2022/06/06 06:53:12;;;;;;;2.20;2.00;;;;;;;;;;4987535;28;20035;-66
2022/06/06 06:56:16;;;;;;;7.25;2.10;;;;;;;;;;4984741;28;20030;-66
2022/06/06 06:58:52;;;;;;;5.43;2.35;;;;;;;;;;4891238;29;20470;-67
2022/06/06 07:01:30;;;;;;;2.55;2.15;;;;;;;;;;4891786;29;20552;-66
2022/06/06 07:09:55;;;;;;;7.35;2.67;;;;;;;;;;4888006;29;20584;-65
2022/06/06 07:12:39;;;;;;;2.40;2.20;;;;;;;;;;4891900;29;20127;-67
2022/06/06 07:15:23;;;;;;;6.28;2.20;;;;;;;;;;4888056;29;20262;-66
2022/06/06 07:17:52;;;;;;;5.22;1.98;;;;;;;;;;4890230;29;20120;-66
2022/06/06 07:20:19;;;;;;;10.13;2.10;;;;;;;;;;4890146;29;20083;-67
2022/06/06 07:23:02;;;;;;;3.60;1.95;;;;;;;;;;4891154;29;20112;-66
2022/06/06 07:25:42;;;;;;;2.58;1.85;;;;;;;;;;4888834;29;20612;-66
2022/06/06 07:28:16;;;;;;;5.35;2.20;;;;;;;;;;4888153;29;20063;-66
2022/06/06 07:31:06;;;;;;;5.82;1.92;;;;;;;;;;4888267;29;20036;-66
2022/06/06 07:33:38;;;;;;;4.32;1.75;;;;;;;;;;4911508;28;20038;-66
2022/06/06 07:36:22;;;;;;;2.90;2.08;;;;;;;;;;4985845;28;20038;-66
2022/06/06 07:39:23;;;;;;;2.90;1.80;;;;;;;;;;4986667;28;20145;-66
2022/06/06 07:42:09;;;;;;;3.63;1.85;;;;;;;;;;4985610;28;20031;-66
2022/06/06 07:44:50;;;;;;;2.28;1.83;;;;;;;;;;4985362;28;20038;-66
2022/06/06 07:47:21;;;;;;;9.47;2.17;;;;;;;;;;4985364;28;20026;-66
2022/06/06 07:50:00;;;;;;;6.87;2.43;;;;;;;;;;4975182;28;20038;-66
2022/06/06 07:52:42;;;;;;;5.90;2.00;;;;;;;;;;4985635;28;20049;-66
2022/06/06 07:55:15;;;;;;;5.30;2.35;;;;;;;;;;4983422;28;20034;-67
2022/06/06 07:58:11;;;;;;;4.85;2.25;;;;;;;;;;4984073;28;20042;-66
2022/06/06 08:00:38;;;;;;;4.68;2.38;;;;;;;;;;4981928;28;20263;-67
2022/06/06 08:03:15;;;;;;;6.03;2.22;;;;;;;;;;4981993;28;20077;-67
2022/06/06 08:05:41;;;;;;;3.17;2.13;;;;;;;;;;4977385;28;20129;-67
2022/06/06 08:08:31;;;;;;;5.28;2.30;;;;;;;;;;4983237;28;20447;-66
2022/06/06 08:11:26;;;;;;;4.63;2.40;;;;;;;;;;4983236;28;20030;-68
2022/06/06 08:14:20;;;;;;;3.35;2.40;;;;;;;;;;4900845;29;20114;-65
2022/06/06 08:17:04;;;;;;;2.83;1.83;;;;;;;;;;4905117;29;20032;-65
2022/06/06 08:19:41;;;;;;;1.83;1.73;;;;;;;;;;4908872;29;20040;-65
2022/06/06 08:22:09;;;;;;;2.88;1.92;;;;;;;;;;4904207;29;20128;-67
2022/06/06 08:24:48;;;;;;;2.22;2.00;;;;;;;;;;4906338;29;20039;-65
2022/06/06 08:27:16;;;;;;;5.40;1.90;;;;;;;;;;4908230;29;20498;-68
2022/06/06 08:29:44;;;;;;;2.30;2.10;;;;;;;;;;4902035;29;20056;-67
2022/06/06 08:32:11;;;;;;;2.58;2.03;;;;;;;;;;4899544;29;20568;-67
2022/06/06 08:34:37;;;;;;;3.75;2.10;;;;;;;;;;4904022;29;20032;-67
2022/06/06 08:37:14;;;;;;;2.08;1.63;;;;;;;;;;4904539;29;20047;-67
2022/06/06 08:40:17;;;;;;;4.95;1.85;;;;;;;;;;4901514;29;22782;-68
2022/06/06 08:42:53;;;;;;;2.22;1.98;;;;;;;;;;4903622;29;20044;-67
2022/06/06 08:46:05;;;;;;;3.13;1.77;;;;;;;;;;4906700;29;20144;-68
2022/06/06 08:48:42;;;;;;;5.43;2.05;;;;;;;;;;4795843;29;20047;-67
2022/06/06 08:51:23;;;;;;;2.55;2.03;;;;;;;;;;4848806;29;20041;-68
2022/06/06 08:54:22;;;;;;;1.55;1.52;;;;;;;;;;4869841;29;20038;-68
2022/06/06 08:57:35;;;;;;;1.80;1.70;;;;;;;;;;4871805;29;20048;-68
2022/06/06 09:00:16;;;;;;;12.00;1.80;;;;;;;;;;4867634;29;20044;-68
2022/06/06 09:02:57;;;;;;;4.15;1.75;;;;;;;;;;4869038;29;20056;-70
2022/06/06 09:05:26;;;;;;;2.85;1.80;;;;;;;;;;4872730;29;20047;-67
2022/06/06 09:08:13;;;;;;;3.15;1.63;;;;;;;;;;4868031;29;20040;-69
2022/06/06 09:10:57;;;;;;;5.63;1.77;;;;;;;;;;4872277;29;20045;-68
2022/06/06 09:13:41;;;;;;;2.70;1.60;;;;;;;;;;4868390;29;20104;-68
2022/06/06 09:16:34;;;;;;;4.15;1.40;;;;;;;;;;4869541;29;20486;-68
2022/06/06 09:19:02;;;;;;;2.47;1.45;;;;;;;;;;4870830;29;20032;-68
2022/06/06 09:22:07;;;;;;;4.10;1.70;;;;;;;;;;4869316;29;20040;-68
2022/06/06 09:24:58;;;;;;;2.75;1.90;;;;;;;;;;4945239;28;20034;-68
2022/06/06 09:28:02;;;;;;;3.88;1.58;;;;;;;;;;4947882;28;20170;-68
2022/06/06 09:31:14;;;;;;;2.72;1.67;;;;;;;;;;4945007;28;20660;-68
2022/06/06 09:34:09;;;;;;;2.40;1.65;;;;;;;;;;4945537;28;20039;-68
2022/06/06 09:36:54;;;;;;;3.15;1.58;;;;;;;;;;4948286;28;20069;-67
2022/06/06 09:39:54;;;;;;;2.03;1.40;;;;;;;;;;4941016;28;20126;-68
2022/06/06 09:42:37;;;;;;;4.72;1.48;;;;;;;;;;4948533;28;20063;-67
2022/06/06 09:45:29;;;;;;;4.00;1.13;;;;;;;;;;4942921;28;20031;-68
2022/06/06 09:48:43;;;;;;;2.15;1.27;;;;;;;;;;4942810;28;20046;-68
2022/06/06 09:51:20;;;;;;;1.55;1.20;;;;;;;;;;4901620;29;20043;-68
2022/06/06 10:00:22;;;;;;;2.78;1.45;;;;;;;;;;4900627;29;20033;-68
2022/06/06 10:03:16;;;;;;;3.85;1.50;;;;;;;;;;4905835;29;20528;-68
2022/06/06 10:05:50;;;;;;;2.15;1.55;;;;;;;;;;4905353;29;20044;-68
2022/06/06 10:08:34;;;;;;;2.15;1.60;;;;;;;;;;4898275;29;20123;-67
2022/06/06 10:11:14;;;;;;;3.10;1.52;;;;;;;;;;4900334;29;20129;-68
2022/06/06 10:13:58;;;;;;;2.00;1.25;;;;;;;;;;4899016;29;20637;-67
2022/06/06 10:16:51;;;;;;;3.95;1.40;;;;;;;;;;4900221;29;20052;-67
2022/06/06 10:19:50;;;;;;;3.83;1.50;;;;;;;;;;4896626;29;20580;-67
2022/06/06 10:22:30;;;;;;;2.80;1.40;;;;;;;;;;4921899;28;21847;-67
2022/06/06 10:25:08;;;;;;;2.20;1.52;;;;;;;;;;4945345;28;20039;-67
2022/06/06 10:27:59;;;;;;;2.25;1.30;;;;;;;;;;4980686;28;20034;-66
2022/06/06 10:30:31;;;;;;;4.07;1.52;;;;;;;;;;4979767;28;20388;-67
2022/06/06 10:33:39;;;;;;;1.50;1.30;;;;;;;;;;4979041;28;20035;-67
2022/06/06 10:36:14;;;;;;;3.10;1.30;;;;;;;;;;4980533;28;20042;-67
2022/06/06 10:39:17;;;;;;;2.58;1.10;;;;;;;;;;4977319;28;20026;-69
2022/06/06 10:42:30;;;;;;;1.63;1.20;;;;;;;;;;4974399;28;20034;-68
2022/06/06 10:45:14;;;;;;;3.97;1.55;;;;;;;;;;4900655;29;20067;-68
2022/06/06 10:47:58;;;;;;;2.25;1.45;;;;;;;;;;4900966;29;20044;-68
2022/06/06 10:50:35;;;;;;;2.67;1.52;;;;;;;;;;4897601;29;20040;-69
2022/06/06 10:53:01;;;;;;;1.90;1.48;;;;;;;;;;4903511;29;20107;-67
2022/06/06 10:56:05;;;;;;;3.83;1.77;;;;;;;;;;4905099;29;20123;-67
2022/06/06 10:58:30;;;;;;;7.43;1.65;;;;;;;;;;4906962;29;20764;-68
2022/06/06 11:01:15;;;;;;;9.43;1.92;;;;;;;;;;4908283;29;20629;-68
2022/06/06 11:04:31;;;;;;;3.22;1.38;;;;;;;;;;4908734;29;20052;-68
2022/06/06 11:07:03;;;;;;;2.55;1.50;;;;;;;;;;4829875;29;21694;-68
2022/06/06 11:09:34;;;;;;;2.80;1.33;;;;;;;;;;4827850;29;20046;-68
2022/06/06 11:12:39;;;;;;;2.38;1.42;;;;;;;;;;4825648;29;20050;-69
2022/06/06 11:15:06;;;;;;;6.20;1.60;;;;;;;;;;4829158;29;20072;-69
2022/06/06 11:17:38;;;;;;;3.08;1.50;;;;;;;;;;4831109;29;20117;-66
2022/06/06 11:20:39;;;;;;;1.70;1.60;;;;;;;;;;4827637;29;20117;-66
2022/06/06 11:23:52;;;;;;;2.23;1.47;;;;;;;;;;4823352;29;20056;-69
2022/06/06 11:26:51;;;;;;;2.33;1.50;;;;;;;;;;4816075;29;20050;-69
2022/06/06 11:29:59;;;;;;;3.17;1.50;;;;;;;;;;4828136;29;20986;-69
2022/06/06 11:32:49;;;;;;;1.58;1.10;;;;;;;;;;4828524;29;20388;-69
2022/06/06 11:35:36;;;;;;;4.68;1.40;;;;;;;;;;4827718;29;20109;-69
2022/06/06 11:38:28;;;;;;;1.55;1.42;;;;;;;;;;4866078;29;20044;-69
2022/06/06 11:41:20;;;;;;;3.65;1.65;;;;;;;;;;4878337;29;21410;-65
2022/06/06 11:44:01;;;;;;;;;;;;;;;;;;4878168;29;20028;-68
2022/06/06 11:46:36;;;;;;;4.57;1.40;;;;;;;;;;4877437;29;20115;-68
2022/06/06 11:49:27;;;;;;;1.60;1.50;;;;;;;;;;4886899;29;20044;-68
2022/06/06 11:52:02;;;;;;;1.92;1.08;;;;;;;;;;4885674;29;20051;-68
2022/06/06 11:54:50;;;;;;;5.50;1.75;;;;;;;;;;4885891;29;20040;-69
2022/06/06 11:57:34;;;;;;;4.07;1.10;;;;;;;;;;4884126;29;20040;-69
2022/06/06 12:00:25;;;;;;;4.80;1.00;;;;;;;;;;4936914;28;20060;-69
2022/06/06 12:03:02;;;;;;;2.20;1.23;;;;;;;;;;4934397;28;20087;-70
2022/06/06 12:06:00;;;;;;;1.38;1.23;;;;;;;;;;4937989;28;20062;-68
2022/06/06 12:08:42;;;;;;;1.70;1.25;;;;;;;;;;4980573;28;20074;-69
2022/06/06 12:11:50;;;;;;;1.05;1.05;;;;;;;;;;4981873;28;20026;-66
2022/06/06 12:14:53;;;;;;;3.10;1.50;;;;;;;;;;4901286;29;20161;-68
2022/06/06 12:17:24;;;;;;;2.33;1.20;;;;;;;;;;4897872;29;20039;-68
2022/06/06 12:20:02;;;;;;;1.15;1.08;;;;;;;;;;4899496;29;20534;-68
2022/06/06 12:22:47;;;;;;;1.20;1.10;;;;;;;;;;4900862;29;20044;-69
2022/06/06 12:25:36;;;;;;;1.88;1.15;;;;;;;;;;4899608;29;20569;-68
2022/06/06 12:28:20;;;;;;;2.13;1.33;;;;;;;;;;4902001;29;20108;-69
2022/06/06 12:30:55;;;;;;;1.95;1.10;;;;;;;;;;4896674;29;20070;-69
2022/06/06 12:33:29;;;;;;;3.63;1.52;;;;;;;;;;4888885;29;20147;-68
2022/06/06 12:36:07;;;;;;;2.65;1.35;;;;;;;;;;4899730;29;20485;-69
2022/06/06 12:38:57;;;;;;;1.70;1.35;;;;;;;;;;4884456;29;20044;-69
2022/06/06 12:41:37;;;;;;;5.00;1.30;;;;;;;;;;4896691;29;20087;-69
2022/06/06 12:44:32;;;;;;;1.33;1.17;;;;;;;;;;4910638;28;20064;-69
2022/06/06 12:47:04;;;;;;;1.45;1.27;;;;;;;;;;4967104;28;20055;-69
2022/06/06 12:49:56;;;;;;;2.92;1.20;;;;;;;;;;4977026;28;20034;-69
2022/06/06 12:52:36;;;;;;;1.33;1.23;;;;;;;;;;4903747;29;20072;-68
2022/06/06 12:55:34;;;;;;;4.07;1.40;;;;;;;;;;4904470;29;20032;-68
2022/06/06 12:58:24;;;;;;;4.03;1.48;;;;;;;;;;4900488;29;20048;-68
2022/06/06 13:04:15;;;;;;;1.40;1.30;;;;;;;;;;4904624;29;20640;-69
2022/06/06 13:06:46;;;;;;;6.07;1.50;;;;;;;;;;4904212;29;20054;-68
2022/06/06 13:09:40;;;;;;;1.85;1.70;;;;;;;;;;4900711;29;20052;-68
2022/06/06 13:12:27;;;;;;;4.25;1.52;;;;;;;;;;4907588;29;20552;-68
2022/06/06 13:15:14;;;;;;;2.47;1.60;;;;;;;;;;4899850;29;20039;-68
2022/06/06 13:18:10;;;;;;;1.75;1.65;;;;;;;;;;4903699;29;20479;-68
2022/06/06 13:20:40;;;;;;;6.07;1.52;;;;;;;;;;4904204;29;20043;-68
2022/06/06 13:23:22;;;;;;;2.60;1.45;;;;;;;;;;4902828;29;20074;-68
2022/06/06 13:25:56;;;;;;;;;;;;;;;;;;4901150;29;20052;-68
2022/06/06 13:28:46;;;;;;;1.33;1.23;;;;;;;;;;4911530;28;19995;-68
2022/06/06 13:31:17;;;;;;;2.65;1.45;;;;;;;;;;4972876;28;20104;-68
2022/06/06 13:34:08;;;;;;;3.70;1.40;;;;;;;;;;4975646;28;20093;-68
2022/06/06 13:36:57;;;;;;;1.63;1.52;;;;;;;;;;4979159;28;20069;-68
2022/06/06 13:39:41;;;;;;;1.42;1.33;;;;;;;;;;4983374;28;20034;-68
2022/06/06 13:42:35;;;;;;;2.58;1.35;;;;;;;;;;4979653;28;20108;-68
2022/06/06 13:45:12;;;;;;;2.88;1.40;;;;;;;;;;4980726;28;20037;-68
2022/06/06 13:48:01;;;;;;;1.38;1.27;;;;;;;;;;4976340;28;20392;-68
2022/06/06 13:50:51;;;;;;;1.95;1.17;;;;;;;;;;4978475;28;20270;-68
2022/06/06 13:53:58;;;;;;;2.97;1.67;;;;;;;;;;4976242;28;20045;-68
2022/06/06 13:56:37;;;;;;;2.88;1.73;;;;;;;;;;4981485;28;20038;-68
2022/06/06 13:59:15;;;;;;;4.75;1.92;;;;;;;;;;4981142;28;20077;-68
2022/06/06 14:02:00;;;;;;;3.28;1.70;;;;;;;;;;4979353;28;20026;-69
2022/06/06 14:04:46;;;;;;;3.17;1.48;;;;;;;;;;4980512;28;20038;-68
2022/06/06 14:07:36;;;;;;;2.28;1.42;;;;;;;;;;4978402;28;20116;-68
2022/06/06 14:10:12;;;;;;;3.95;1.70;;;;;;;;;;4983804;28;20034;-68
2022/06/06 14:12:38;;;;;;;2.88;1.40;;;;;;;;;;4982931;28;20061;-68
2022/06/06 14:15:09;;;;;;;4.22;1.48;;;;;;;;;;4981231;28;20383;-69
2022/06/06 14:17:40;;;;;;;3.00;1.40;;;;;;;;;;4980003;28;20034;-67
2022/06/06 14:20:18;;;;;;;6.15;1.80;;;;;;;;;;4982444;28;20129;-69
2022/06/06 14:22:45;;;;;;;3.25;1.75;;;;;;;;;;4980209;28;20049;-69
2022/06/06 14:25:12;;;;;;;4.88;1.45;;;;;;;;;;4979866;28;20047;-67
2022/06/06 14:27:39;;;;;;;3.33;1.80;;;;;;;;;;4987134;28;20035;-68
2022/06/06 14:30:26;;;;;;;4.72;2.10;;;;;;;;;;4986790;28;20022;-68
2022/06/06 14:33:01;;;;;;;2.70;1.50;;;;;;;;;;4983110;28;20372;-68
2022/06/06 14:35:33;;;;;;;4.50;1.60;;;;;;;;;;4983408;28;20442;-68
2022/06/06 14:38:24;;;;;;;2.95;1.50;;;;;;;;;;4985246;28;20034;-68
2022/06/06 14:41:03;;;;;;;7.32;1.70;;;;;;;;;;4981070;28;20555;-68
2022/06/06 14:43:43;;;;;;;3.75;1.80;;;;;;;;;;4984896;28;20030;-68
2022/06/06 14:46:10;;;;;;;5.90;1.60;;;;;;;;;;4988226;28;20053;-67
2022/06/06 14:48:44;;;;;;;6.20;1.73;;;;;;;;;;4982053;28;20277;-68
2022/06/06 14:51:13;;;;;;;5.75;1.88;;;;;;;;;;4986394;28;20033;-68
2022/06/06 14:53:54;;;;;;;7.47;1.92;;;;;;;;;;4984638;28;20038;-67
2022/06/06 14:56:19;;;;;;;5.70;1.90;;;;;;;;;;4986126;28;20033;-68
2022/06/06 14:59:01;;;;;;;5.05;1.60;;;;;;;;;;4981866;28;20030;-68
2022/06/06 15:01:28;;;;;;;3.25;2.03;;;;;;;;;;4980731;28;20424;-67
2022/06/06 15:03:56;;;;;;;7.18;1.88;;;;;;;;;;4982320;28;20065;-68
2022/06/06 15:06:24;;;;;;;7.05;1.73;;;;;;;;;;4987495;28;20030;-68
2022/06/06 15:09:14;;;;;;;6.15;1.60;;;;;;;;;;4984623;28;20026;-67
2022/06/06 15:11:42;;;;;;;4.15;1.55;;;;;;;;;;4980821;28;20086;-68
2022/06/06 15:14:31;;;;;;;1.52;1.40;;;;;;;;;;4980460;28;20491;-68
2022/06/06 15:16:58;;;;;;;1.98;1.65;;;;;;;;;;4978253;28;20177;-67
2022/06/06 15:19:39;;;;;;;2.45;1.70;;;;;;;;;;4981961;28;20031;-67
2022/06/06 15:22:06;;;;;;;3.38;1.52;;;;;;;;;;4980227;28;20038;-67
2022/06/06 15:24:43;;;;;;;2.15;1.40;;;;;;;;;;4980601;28;20026;-68
2022/06/06 15:27:32;;;;;;;2.25;1.25;;;;;;;;;;4984475;28;20070;-68
2022/06/06 15:30:04;;;;;;;5.55;1.70;;;;;;;;;;4966617;28;20050;-65
2022/06/06 15:32:45;;;;;;;4.07;1.73;;;;;;;;;;4985474;28;20035;-65
2022/06/06 15:35:11;;;;;;;5.05;1.90;;;;;;;;;;4983867;28;20076;-64
2022/06/06 15:37:44;;;;;;;5.18;1.40;;;;;;;;;;4983656;28;20513;-66
2022/06/06 15:40:35;;;;;;;3.80;1.73;;;;;;;;;;4981381;28;20080;-65
2022/06/06 15:43:04;;;;;;;4.45;1.98;;;;;;;;;;4982176;28;20133;-65
2022/06/06 15:45:54;;;;;;;6.35;2.15;;;;;;;;;;4983810;28;20113;-65
2022/06/06 15:48:31;;;;;;;5.68;1.92;;;;;;;;;;4985010;28;20026;-65
2022/06/06 15:51:02;;;;;;;3.22;1.42;;;;;;;;;;4976837;28;20102;-66
2022/06/06 15:53:46;;;;;;;4.38;1.63;;;;;;;;;;4978620;28;20089;-66
2022/06/06 15:56:22;;;;;;;7.80;1.60;;;;;;;;;;4976087;28;20058;-66
2022/06/06 15:59:02;;;;;;;5.70;1.58;;;;;;;;;;4978200;28;20165;-66
2022/06/06 16:01:39;;;;;;;3.00;1.30;;;;;;;;;;4978411;28;20022;-66
2022/06/06 16:04:30;;;;;;;4.93;1.80;;;;;;;;;;4984616;28;20453;-66
2022/06/06 16:07:19;;;;;;;6.88;1.75;;;;;;;;;;4979652;28;20077;-66
2022/06/06 16:09:57;;;;;;;3.17;1.40;;;;;;;;;;4980835;28;20549;-65
2022/06/06 16:12:31;;;;;;;3.55;1.67;;;;;;;;;;4986069;28;20045;-65
2022/06/06 16:15:26;;;;;;;2.38;1.30;;;;;;;;;;4978111;28;20034;-65
2022/06/06 16:17:59;;;;;;;3.95;2.10;;;;;;;;;;4974925;28;20041;-65
2022/06/06 16:21:08;;;;;;;15.77;2.13;;;;;;;;;;4983169;28;20034;-68
2022/06/06 16:24:00;;;;;;;2.83;1.90;;;;;;;;;;4906666;29;20032;-68
2022/06/06 16:26:41;;;;;;;;;;;;;;;;;;4891249;29;20048;-67
2022/06/06 16:29:17;;;;;;;3.17;1.75;;;;;;;;;;4903927;29;19977;-67